This is the latest recevied weather packets stored in our database for station/object GBTWP-2. If no packets are shown the sender has not sent any weather packets the latest 10 day(s).
| Time | Temp. | Humidity | Pressure | Rain* | Wind** | Luminosity | Snow |
|---|---|---|---|---|---|---|---|
| 1777837502 | 16.67° C | 43% | 1011.5 hPa | 0 mm | - | 76 W/m² | - |
| 1777836902 | 17.22° C | 42% | 1011.7 hPa | 0 mm | - | 100 W/m² | - |
| 1777836603 | 17.22° C | 43% | 1011.7 hPa | 0 mm | - | 247 W/m² | - |
| 1777836301 | 17.22° C | 45% | 1011.7 hPa | 0 mm | - | 275 W/m² | - |
| 1777836002 | 17.78° C | 41% | 1011.7 hPa | 0 mm | - | 354 W/m² | - |
| 1777835102 | 16.67° C | 44% | 1012 hPa | 0 mm | - | 115 W/m² | - |
| 1777834801 | 16.67° C | 45% | 1012 hPa | 0 mm | - | 239 W/m² | - |
| 1777833902 | 16.67° C | 46% | 1012 hPa | 0 mm | - | 130 W/m² | - |
| 1777833602 | 16.67° C | 43% | 1012.1 hPa | 0 mm | - | 417 W/m² | - |
| 1777833302 | 16.67° C | 43% | 1012.5 hPa | 0 mm | - | 108 W/m² | - |
| 1777832701 | 16.67° C | 44% | 1012.5 hPa | 0 mm | - | 236 W/m² | - |
| 1777832402 | 16.11° C | 45% | 1012.3 hPa | 0 mm | - | 115 W/m² | - |
| 1777831201 | 16.11° C | 42% | 1012.8 hPa | 0 mm | - | 138 W/m² | - |
| 1777830902 | 15.56° C | 43% | 1012.9 hPa | 0 mm | - | 132 W/m² | - |
| 1777830602 | 15° C | 45% | 1013.1 hPa | 0 mm | - | 174 W/m² | - |
| 1777830002 | 14.44° C | 45% | 1013.2 hPa | 0 mm | - | 142 W/m² | - |
| 1777829701 | 15° C | 43% | 1013.3 hPa | 0 mm | - | 143 W/m² | - |
| 1777829101 | 15.56° C | 44% | 1013.5 hPa | 0 mm | - | 158 W/m² | - |
| 1777828802 | 15° C | 45% | 1013.4 hPa | 0 mm | - | 194 W/m² | - |
| 1777828202 | 15.56° C | 43% | 1013.8 hPa | 0 mm | - | 176 W/m² | - |
| 1777827902 | 15.56° C | 45% | 1013.6 hPa | 0 mm | - | 150 W/m² | - |
| 1777827601 | 14.44° C | 45% | 1013.7 hPa | 0 mm | - | 164 W/m² | - |
| 1777827302 | 14.44° C | 45% | 1013.8 hPa | 0 mm | - | 130 W/m² | - |
| 1777827001 | 14.44° C | 44% | 1013.8 hPa | 0 mm | - | 131 W/m² | - |
| 1777826702 | 14.44° C | 46% | 1013.9 hPa | 0 mm | - | 141 W/m² | - |
* Rain latest hour (hover to see other rain measurements)
** Current wind speed in m/s (hover to see current wind gust speed)